createdAt,value
2017-03-19T00:00:12.537Z,2.27
2017-03-19T00:01:12.933Z,2.38
2017-03-19T00:02:13.346Z,2.24
2017-03-19T00:03:13.749Z,2.26
2017-03-19T00:04:14.154Z,2.26
2017-03-19T00:05:14.553Z,2.29
2017-03-19T00:06:14.955Z,2.27
2017-03-19T00:07:15.352Z,2.29
2017-03-19T00:08:15.800Z,2.18
2017-03-19T00:09:16.249Z,2.18
2017-03-19T00:10:16.661Z,2.22
2017-03-19T00:11:17.062Z,2.18
2017-03-19T00:12:17.471Z,2.08
2017-03-19T00:13:17.872Z,2.15
2017-03-19T00:14:18.282Z,2.16
2017-03-19T00:15:18.692Z,2.11
2017-03-19T00:16:19.097Z,2.11
2017-03-19T00:17:19.500Z,2.11
2017-03-19T00:18:19.883Z,2.12
2017-03-19T00:19:20.280Z,2.13
2017-03-19T00:20:20.684Z,2.13
2017-03-19T00:21:21.101Z,2.01
2017-03-19T00:22:21.484Z,2.06
2017-03-19T00:23:21.885Z,2.04
2017-03-19T00:24:22.300Z,1.92
2017-03-19T00:25:22.738Z,1.89
2017-03-19T00:26:23.154Z,1.94
2017-03-19T00:27:23.548Z,1.94
2017-03-19T00:28:23.943Z,1.94
2017-03-19T00:29:24.336Z,2.01
2017-03-19T00:30:24.745Z,1.93
2017-03-19T00:31:25.141Z,1.97
2017-03-19T00:32:25.533Z,1.89
2017-03-19T00:33:25.977Z,1.94
2017-03-19T00:34:26.381Z,1.93
2017-03-19T00:35:26.839Z,1.84
2017-03-19T00:36:27.243Z,1.89
2017-03-19T00:37:27.648Z,1.94
2017-03-19T00:38:28.043Z,1.93
2017-03-19T00:39:28.487Z,1.87
2017-03-19T00:40:28.910Z,1.89
2017-03-19T00:41:29.319Z,1.9
2017-03-19T00:42:29.724Z,1.86
2017-03-19T00:43:30.146Z,1.79
2017-03-19T00:44:30.547Z,1.87
2017-03-19T00:45:30.941Z,1.71
2017-03-19T00:46:31.334Z,1.79
2017-03-19T00:47:31.730Z,1.69
2017-03-19T00:48:32.136Z,1.66
2017-03-19T00:49:32.538Z,1.74
2017-03-19T00:50:32.935Z,1.72
2017-03-19T00:51:33.331Z,1.71
2017-03-19T00:52:33.732Z,1.58
2017-03-19T00:53:34.141Z,1.61
2017-03-19T00:54:34.576Z,1.66
2017-03-19T00:55:35.008Z,1.64
2017-03-19T00:56:35.406Z,1.64
2017-03-19T00:57:35.810Z,1.68
2017-03-19T00:58:36.209Z,1.56
2017-03-19T00:59:36.605Z,1.54
2017-03-19T01:00:37.003Z,1.61
2017-03-19T01:01:37.399Z,1.61
2017-03-19T01:02:37.791Z,1.61
2017-03-19T01:03:38.197Z,1.61
2017-03-19T01:04:38.589Z,1.64
2017-03-19T01:05:39.019Z,1.58
2017-03-19T01:06:39.413Z,1.64
2017-03-19T01:07:39.805Z,1.61
2017-03-19T01:08:40.211Z,1.64
2017-03-19T01:09:40.604Z,1.53
2017-03-19T01:10:41.002Z,1.48
2017-03-19T01:11:41.387Z,1.36
2017-03-19T01:12:41.784Z,1.38
2017-03-19T01:13:42.184Z,1.4
2017-03-19T01:14:42.590Z,1.4
2017-03-19T01:15:42.990Z,1.39
2017-03-19T01:16:43.388Z,1.42
2017-03-19T01:17:43.791Z,1.4
2017-03-19T01:18:44.202Z,1.53
2017-03-19T01:19:44.594Z,1.51
2017-03-19T01:20:44.988Z,1.57
2017-03-19T01:21:45.356Z,1.53
2017-03-19T01:22:45.744Z,1.44
2017-03-19T01:23:46.157Z,1.54
2017-03-19T01:24:46.555Z,1.47
2017-03-19T01:25:46.955Z,1.53
2017-03-19T01:26:47.351Z,1.44
2017-03-19T01:27:47.745Z,1.5
2017-03-19T01:28:48.151Z,1.4
2017-03-19T01:29:48.548Z,1.42
2017-03-19T01:30:48.947Z,1.39
2017-03-19T01:31:49.341Z,1.36
2017-03-19T01:32:49.747Z,1.35
2017-03-19T01:33:50.152Z,1.32
2017-03-19T01:34:50.547Z,1.36
2017-03-19T01:35:50.953Z,1.24
2017-03-19T01:36:51.342Z,1.14
2017-03-19T01:37:51.748Z,1.18
2017-03-19T01:38:52.147Z,1.14
2017-03-19T01:39:52.548Z,1.21
2017-03-19T01:40:52.946Z,1.07
2017-03-19T01:41:53.341Z,1.11
2017-03-19T01:42:53.735Z,1.07
2017-03-19T01:43:54.146Z,1.11
2017-03-19T01:44:54.552Z,1.17
2017-03-19T01:45:54.942Z,1.21
2017-03-19T01:46:55.337Z,1.2
2017-03-19T01:47:55.736Z,1.08
2017-03-19T01:48:56.141Z,1.11
2017-03-19T01:49:56.533Z,1.03
2017-03-19T01:50:56.929Z,1.02
2017-03-19T01:51:57.327Z,1
2017-03-19T01:52:57.730Z,1.04
2017-03-19T01:53:58.136Z,1
2017-03-19T01:54:58.529Z,0.99
2017-03-19T01:55:58.926Z,1.07
2017-03-19T01:56:59.312Z,1.1
2017-03-19T01:57:59.722Z,1.03
2017-03-19T01:59:00.122Z,1.02
2017-03-19T02:00:00.743Z,1.07
2017-03-19T02:01:00.528Z,1.07
2017-03-19T02:02:00.916Z,1.02
2017-03-19T02:03:01.311Z,1.03
2017-03-19T02:04:01.706Z,1.04
2017-03-19T02:05:02.113Z,0.89
2017-03-19T02:06:02.522Z,0.99
2017-03-19T02:07:02.949Z,1.02
2017-03-19T02:08:03.350Z,1.03
2017-03-19T02:09:03.762Z,0.99
2017-03-19T02:10:04.182Z,1
2017-03-19T02:11:04.583Z,0.94
2017-03-19T02:12:04.968Z,1
2017-03-19T02:13:05.366Z,0.9
2017-03-19T02:14:05.764Z,0.89
2017-03-19T02:15:06.174Z,0.86
2017-03-19T02:16:06.561Z,0.84
2017-03-19T02:17:06.962Z,0.86
2017-03-19T02:18:07.363Z,0.84
2017-03-19T02:19:07.751Z,0.94
2017-03-19T02:20:08.162Z,0.84
2017-03-19T02:21:08.558Z,0.81
2017-03-19T02:22:08.971Z,0.89
2017-03-19T02:23:09.378Z,0.92
2017-03-19T02:24:09.785Z,0.93
2017-03-19T02:25:10.159Z,0.93
2017-03-19T02:26:10.565Z,0.93
2017-03-19T02:27:10.987Z,0.86
2017-03-19T02:28:11.394Z,0.9
2017-03-19T02:29:11.801Z,0.92
2017-03-19T02:30:12.206Z,0.76
2017-03-19T02:31:12.590Z,0.84
2017-03-19T02:32:12.989Z,0.86
2017-03-19T02:33:13.392Z,0.75
2017-03-19T02:34:13.778Z,0.69
2017-03-19T02:35:14.182Z,0.67
2017-03-19T02:36:14.569Z,0.67
2017-03-19T02:37:14.962Z,0.71
2017-03-19T02:38:15.360Z,0.61
2017-03-19T02:39:15.759Z,0.6
2017-03-19T02:40:16.158Z,0.61
2017-03-19T02:41:16.555Z,0.61
2017-03-19T02:42:16.945Z,0.64
2017-03-19T02:43:17.330Z,0.57
2017-03-19T02:44:17.732Z,0.56
2017-03-19T02:45:18.132Z,0.47
2017-03-19T02:46:18.506Z,0.5
2017-03-19T02:47:18.890Z,0.44
2017-03-19T02:48:19.292Z,0.38
2017-03-19T02:49:19.691Z,0.42
2017-03-19T02:50:20.093Z,0.52
2017-03-19T02:51:20.488Z,0.47
2017-03-19T02:52:20.881Z,0.52
2017-03-19T02:53:21.277Z,0.57
2017-03-19T02:54:21.678Z,0.56
2017-03-19T02:55:22.070Z,0.56
2017-03-19T02:56:22.464Z,0.57
2017-03-19T02:57:22.862Z,0.6
2017-03-19T02:58:23.256Z,0.61
2017-03-19T02:59:23.669Z,0.56
2017-03-19T03:00:24.075Z,0.6
2017-03-19T03:01:24.767Z,0.56
2017-03-19T03:02:24.618Z,0.5
2017-03-19T03:03:25.261Z,0.42
2017-03-19T03:04:25.199Z,0.38
2017-03-19T03:05:25.605Z,0.38
2017-03-19T03:06:25.996Z,0.45
2017-03-19T03:07:26.417Z,0.34
2017-03-19T03:08:26.801Z,0.34
2017-03-19T03:09:27.214Z,0.39
2017-03-19T03:10:27.610Z,0.34
2017-03-19T03:11:27.995Z,0.38
2017-03-19T03:12:28.385Z,0.41
2017-03-19T03:13:28.793Z,0.34
2017-03-19T03:14:29.198Z,0.32
2017-03-19T03:15:29.593Z,0.38
2017-03-19T03:16:29.987Z,0.47
2017-03-19T03:17:30.376Z,0.37
2017-03-19T03:18:30.787Z,0.42
2017-03-19T03:19:31.185Z,0.34
2017-03-19T03:20:31.614Z,0.32
2017-03-19T03:21:32.003Z,0.28
2017-03-19T03:22:32.400Z,0.32
2017-03-19T03:23:32.798Z,0.28
2017-03-19T03:24:33.179Z,0.28
2017-03-19T03:25:33.567Z,0.2
2017-03-19T03:26:33.970Z,0.27
2017-03-19T03:27:34.359Z,0.06
2017-03-19T03:28:34.748Z,0.16
2017-03-19T03:29:35.175Z,0.08
2017-03-19T03:30:35.570Z,0.14
2017-03-19T03:31:35.963Z,0.2
2017-03-19T03:32:36.396Z,0.06
2017-03-19T03:33:36.802Z,0.09
2017-03-19T03:34:37.194Z,0.16
2017-03-19T03:35:37.575Z,0.14
2017-03-19T03:36:37.968Z,0.08
2017-03-19T03:37:38.387Z,0.16
2017-03-19T03:38:38.800Z,0.16
2017-03-19T03:39:39.196Z,0.16
2017-03-19T03:40:39.599Z,0.14
2017-03-19T03:41:39.994Z,0.16
2017-03-19T03:42:40.396Z,0.17
2017-03-19T03:43:40.785Z,0.08
2017-03-19T03:44:41.181Z,-0.01
2017-03-19T03:45:41.576Z,0.01
2017-03-19T03:46:41.981Z,-0.01
2017-03-19T03:47:42.371Z,0.01
2017-03-19T03:48:42.763Z,0.02
2017-03-19T03:49:43.168Z,0.08
2017-03-19T03:50:43.558Z,0.02
2017-03-19T03:51:43.943Z,0.13
2017-03-19T03:52:44.345Z,0.09
2017-03-19T03:53:44.772Z,0.05
2017-03-19T03:54:45.173Z,-0.09
2017-03-19T03:55:45.564Z,0.05
2017-03-19T03:56:45.958Z,-0.12
2017-03-19T03:57:46.362Z,-0.02
2017-03-19T03:58:46.765Z,-0.09
2017-03-19T03:59:47.161Z,-0.12
2017-03-19T04:00:47.559Z,-0.15
2017-03-19T04:01:47.983Z,-0.15
2017-03-19T04:02:48.365Z,-0.22
2017-03-19T04:03:48.750Z,-0.13
2017-03-19T04:04:49.161Z,-0.15
2017-03-19T04:05:49.769Z,-0.16
2017-03-19T04:06:49.572Z,-0.18
2017-03-19T04:07:49.969Z,-0.2
2017-03-19T04:08:50.369Z,-0.2
2017-03-19T04:09:50.768Z,-0.2
2017-03-19T04:10:51.152Z,-0.18
2017-03-19T04:11:51.619Z,-0.18
2017-03-19T04:12:52.021Z,-0.18
2017-03-19T04:13:52.431Z,-0.12
2017-03-19T04:14:52.830Z,-0.22
2017-03-19T04:15:53.246Z,-0.23
2017-03-19T04:16:53.624Z,-0.25
2017-03-19T04:17:54.014Z,-0.25
2017-03-19T04:18:54.403Z,-0.2
2017-03-19T04:19:54.806Z,-0.19
2017-03-19T04:20:55.222Z,-0.3
2017-03-19T04:21:55.610Z,-0.27
2017-03-19T04:22:56.015Z,-0.34
2017-03-19T04:23:56.409Z,-0.33
2017-03-19T04:24:56.789Z,-0.3
2017-03-19T04:25:57.196Z,-0.36
2017-03-19T04:26:57.567Z,-0.33
2017-03-19T04:27:57.945Z,-0.46
2017-03-19T04:28:58.343Z,-0.41
2017-03-19T04:29:58.746Z,-0.38
2017-03-19T04:30:59.141Z,-0.37
2017-03-19T04:31:59.525Z,-0.49
2017-03-19T04:32:59.926Z,-0.41
2017-03-19T04:34:00.324Z,-0.41
2017-03-19T04:35:00.717Z,-0.36
2017-03-19T04:36:01.103Z,-0.36
2017-03-19T04:37:01.500Z,-0.34
2017-03-19T04:38:01.881Z,-0.33
2017-03-19T04:39:02.278Z,-0.27
2017-03-19T04:40:02.687Z,-0.3
2017-03-19T04:41:03.081Z,-0.27
2017-03-19T04:42:03.448Z,-0.22
2017-03-19T04:43:03.865Z,-0.22
2017-03-19T04:44:04.305Z,-0.23
2017-03-19T04:45:04.707Z,-0.22
2017-03-19T04:46:05.150Z,-0.16
2017-03-19T04:47:05.542Z,-0.23
2017-03-19T04:48:05.951Z,-0.12
2017-03-19T04:49:06.360Z,-0.2
2017-03-19T04:50:06.774Z,-0.15
2017-03-19T04:51:07.162Z,-0.13
2017-03-19T04:52:07.570Z,-0.13
2017-03-19T04:53:08.004Z,-0.1
2017-03-19T04:54:08.426Z,-0.15
2017-03-19T04:55:08.799Z,-0.16
2017-03-19T04:56:09.216Z,-0.19
2017-03-19T04:57:09.628Z,-0.22
2017-03-19T04:58:10.036Z,-0.19
2017-03-19T04:59:10.445Z,-0.1
2017-03-19T05:00:23.766Z,-0.09
2017-03-19T05:01:24.236Z,0.03
2017-03-19T05:02:24.712Z,-0.05
2017-03-19T05:03:24.722Z,0.01
2017-03-19T05:04:25.203Z,0.03
2017-03-19T05:05:25.716Z,0.06
2017-03-19T05:06:26.218Z,0.1
2017-03-19T05:07:26.642Z,0.08
2017-03-19T05:08:27.127Z,0.06
2017-03-19T05:09:27.668Z,-0.04
2017-03-19T05:10:27.651Z,0.08
2017-03-19T05:11:28.143Z,-0.09
2017-03-19T05:12:28.604Z,0.03
2017-03-19T05:13:29.075Z,0.03
2017-03-19T05:14:29.534Z,-0.02
2017-03-19T05:15:30.013Z,0.08
2017-03-19T05:16:30.496Z,0.13
2017-03-19T05:17:30.980Z,0.06
2017-03-19T05:18:31.455Z,0.06
2017-03-19T05:19:31.940Z,0.1
2017-03-19T05:20:32.418Z,0.2
2017-03-19T05:21:32.905Z,0.16
2017-03-19T05:22:33.387Z,0.2
2017-03-19T05:23:33.868Z,0.2
2017-03-19T05:24:34.348Z,0.14
2017-03-19T05:25:34.818Z,0.16
2017-03-19T05:26:35.300Z,0.09
2017-03-19T05:27:35.760Z,0.16
2017-03-19T05:28:36.225Z,0.09
2017-03-19T05:29:36.690Z,0.21
2017-03-19T05:30:37.144Z,0.24
2017-03-19T05:31:37.627Z,0.24
2017-03-19T05:32:38.096Z,0.32
2017-03-19T05:33:38.585Z,0.31
2017-03-19T05:34:39.074Z,0.37
2017-03-19T05:35:39.563Z,0.37
2017-03-19T05:36:40.003Z,0.37
2017-03-19T05:37:40.494Z,0.38
2017-03-19T05:38:40.983Z,0.45
2017-03-19T05:39:41.459Z,0.53
2017-03-19T05:40:41.975Z,0.53
2017-03-19T05:41:42.430Z,0.67
2017-03-19T05:42:42.905Z,0.63
2017-03-19T05:43:43.413Z,0.72
2017-03-19T05:44:43.883Z,0.79
2017-03-19T05:45:43.902Z,0.86
2017-03-19T05:46:44.370Z,1
2017-03-19T05:47:44.822Z,1.02
2017-03-19T05:48:45.283Z,1
2017-03-19T05:49:45.727Z,1.08
2017-03-19T05:50:46.220Z,1.17
2017-03-19T05:51:46.688Z,1.24
2017-03-19T05:52:47.168Z,1.17
2017-03-19T05:53:47.657Z,1.32
2017-03-19T05:54:47.652Z,1.22
2017-03-19T05:55:48.117Z,1.26
2017-03-19T05:56:48.591Z,1.38
2017-03-19T05:57:49.074Z,1.4
2017-03-19T05:58:49.553Z,1.36
2017-03-19T05:59:50.052Z,1.36
2017-03-19T06:00:50.542Z,1.47
2017-03-19T06:01:51.006Z,1.44
2017-03-19T06:02:51.477Z,1.53
2017-03-19T06:03:51.965Z,1.61
2017-03-19T06:04:52.970Z,1.65
2017-03-19T06:05:52.986Z,1.65
2017-03-19T06:06:53.003Z,1.71
2017-03-19T06:07:53.045Z,1.83
2017-03-19T06:08:53.069Z,1.87
2017-03-19T06:09:53.089Z,1.82
2017-03-19T06:10:53.105Z,1.9
2017-03-19T06:11:53.143Z,1.93
2017-03-19T06:12:53.183Z,1.93
2017-03-19T06:13:53.202Z,2.04
2017-03-19T06:14:53.218Z,1.98
2017-03-19T06:15:53.243Z,2.06
2017-03-19T06:16:53.264Z,2.09
2017-03-19T06:17:53.304Z,2.08
2017-03-19T06:18:53.308Z,2.09
2017-03-19T06:19:53.345Z,2.16
2017-03-19T06:20:53.363Z,2.2
2017-03-19T06:21:53.390Z,2.06
2017-03-19T06:22:53.388Z,2.09
2017-03-19T06:23:53.451Z,2.15
2017-03-19T06:24:53.464Z,2.2
2017-03-19T06:25:53.506Z,2.24
2017-03-19T06:26:53.521Z,2.23
2017-03-19T06:27:53.535Z,2.4
2017-03-19T06:28:53.549Z,2.42
2017-03-19T06:29:53.601Z,2.3
2017-03-19T06:30:53.615Z,2.44
2017-03-19T06:31:53.649Z,2.51
2017-03-19T06:32:53.660Z,2.62
2017-03-19T06:33:53.699Z,2.55
2017-03-19T06:34:53.718Z,2.69
2017-03-19T06:35:53.731Z,2.83
2017-03-19T06:36:53.748Z,2.91
2017-03-19T06:37:53.795Z,3.03
2017-03-19T06:38:53.815Z,3.19
2017-03-19T06:39:53.825Z,3.14
2017-03-19T06:40:53.870Z,3.26
2017-03-19T06:41:53.876Z,3.24
2017-03-19T06:42:53.924Z,3.34
2017-03-19T06:43:53.962Z,3.4
2017-03-19T06:44:53.974Z,3.46
2017-03-19T06:45:53.986Z,3.51
2017-03-19T06:46:54.022Z,3.53
2017-03-19T06:47:54.040Z,3.63
2017-03-19T06:48:54.093Z,3.71
2017-03-19T06:49:54.118Z,3.82
2017-03-19T06:50:54.119Z,3.89
2017-03-19T06:51:54.163Z,3.86
2017-03-19T06:52:54.184Z,3.79
2017-03-19T06:53:54.214Z,3.81
2017-03-19T06:54:54.225Z,3.85
2017-03-19T06:55:54.260Z,3.85
2017-03-19T06:56:54.261Z,3.86
2017-03-19T06:57:54.320Z,3.9
2017-03-19T06:58:54.339Z,3.84
2017-03-19T06:59:54.371Z,3.96
2017-03-19T07:00:54.353Z,3.92
2017-03-19T07:01:54.397Z,4.04
2017-03-19T07:02:54.442Z,4.02
2017-03-19T07:03:54.465Z,3.96
2017-03-19T07:04:54.481Z,4.02
2017-03-19T07:05:54.522Z,4
2017-03-19T07:06:54.542Z,4.07
2017-03-19T07:07:54.561Z,4.14
2017-03-19T07:08:54.605Z,4.12
2017-03-19T07:09:54.622Z,4.15
2017-03-19T07:10:54.636Z,4.17
2017-03-19T07:11:54.670Z,4.08
2017-03-19T07:12:54.703Z,4.28
2017-03-19T07:13:54.715Z,4.18
2017-03-19T07:14:54.756Z,4.29
2017-03-19T07:15:54.776Z,4.35
2017-03-19T07:16:54.800Z,4.3
2017-03-19T07:17:54.836Z,4.47
2017-03-19T07:18:54.868Z,4.53
2017-03-19T07:19:54.864Z,4.57
2017-03-19T07:20:54.913Z,4.65
2017-03-19T07:21:54.934Z,4.76
2017-03-19T07:22:54.972Z,4.78
2017-03-19T07:23:54.977Z,4.79
2017-03-19T07:24:55.000Z,4.84
2017-03-19T07:25:55.043Z,4.69
2017-03-19T07:26:55.072Z,4.83
2017-03-19T07:27:55.102Z,4.78
2017-03-19T07:28:55.117Z,4.97
2017-03-19T07:29:55.161Z,5
2017-03-19T07:30:55.175Z,5
2017-03-19T07:31:55.199Z,4.9
2017-03-19T07:32:55.272Z,4.9
2017-03-19T07:33:55.257Z,4.92
2017-03-19T07:34:55.279Z,4.92
2017-03-19T07:35:55.292Z,5.05
2017-03-19T07:36:55.326Z,5.1
2017-03-19T07:37:55.365Z,5.21
2017-03-19T07:38:55.393Z,5.36
2017-03-19T07:39:55.417Z,5.55
2017-03-19T07:40:55.450Z,5.64
2017-03-19T07:41:55.474Z,5.63
2017-03-19T07:42:55.504Z,5.75
2017-03-19T07:43:55.527Z,5.64
2017-03-19T07:44:55.530Z,5.73
2017-03-19T07:45:55.583Z,5.8
2017-03-19T07:46:55.595Z,5.88
2017-03-19T07:47:55.646Z,6.1
2017-03-19T07:48:55.665Z,6.25
2017-03-19T07:49:55.700Z,6.33
2017-03-19T07:50:55.711Z,6.31
2017-03-19T07:51:55.754Z,6.18
2017-03-19T07:52:55.772Z,6.06
2017-03-19T07:53:55.814Z,5.89
2017-03-19T07:54:55.867Z,5.81
2017-03-19T07:55:55.851Z,5.62
2017-03-19T07:56:55.881Z,5.66
2017-03-19T07:57:55.910Z,5.64
2017-03-19T07:58:55.946Z,5.51
2017-03-19T07:59:55.980Z,5.41
2017-03-19T08:00:55.983Z,5.34
2017-03-19T08:01:56.016Z,5.33
2017-03-19T08:02:56.056Z,5.21
2017-03-19T08:03:56.115Z,5.23
2017-03-19T08:04:56.112Z,5.28
2017-03-19T08:05:56.161Z,5.15
2017-03-19T08:06:56.157Z,5.15
2017-03-19T08:07:56.194Z,5.24
2017-03-19T08:08:56.210Z,5.33
2017-03-19T08:09:56.252Z,5.26
2017-03-19T08:10:56.265Z,5.37
2017-03-19T08:11:56.301Z,5.45
2017-03-19T08:12:56.339Z,5.46
2017-03-19T08:13:56.337Z,5.55
2017-03-19T08:14:56.384Z,5.54
2017-03-19T08:15:56.414Z,5.55
2017-03-19T08:16:56.427Z,5.59
2017-03-19T08:17:56.462Z,5.6
2017-03-19T08:18:56.492Z,5.73
2017-03-19T08:19:56.524Z,5.87
2017-03-19T08:20:56.540Z,5.92
2017-03-19T08:21:56.570Z,6.02
2017-03-19T08:22:56.602Z,5.95
2017-03-19T08:23:56.632Z,5.84
2017-03-19T08:24:56.659Z,5.73
2017-03-19T08:25:56.685Z,5.72
2017-03-19T08:26:56.723Z,5.6
2017-03-19T08:27:56.729Z,5.54
2017-03-19T08:28:56.768Z,5.48
2017-03-19T08:29:56.796Z,5.42
2017-03-19T08:30:56.828Z,5.44
2017-03-19T08:31:56.813Z,5.46
2017-03-19T08:32:56.915Z,5.54
2017-03-19T08:33:56.907Z,5.48
2017-03-19T08:34:56.940Z,5.6
2017-03-19T08:35:56.955Z,5.59
2017-03-19T08:36:56.970Z,5.59
2017-03-19T08:37:57.020Z,5.59
2017-03-19T08:38:57.031Z,5.69
2017-03-19T08:39:57.073Z,5.69
2017-03-19T08:40:57.095Z,5.73
2017-03-19T08:41:57.132Z,5.72
2017-03-19T08:42:57.146Z,5.64
2017-03-19T08:43:57.187Z,5.75
2017-03-19T08:44:57.214Z,5.73
2017-03-19T08:45:57.222Z,5.78
2017-03-19T08:46:57.248Z,5.87
2017-03-19T08:47:57.290Z,5.95
2017-03-19T08:48:57.334Z,6.05
2017-03-19T08:49:57.354Z,6.09
2017-03-19T08:50:57.352Z,6.02
2017-03-19T08:51:57.407Z,6.05
2017-03-19T08:52:57.434Z,6.13
2017-03-19T08:53:57.474Z,6.21
2017-03-19T08:54:57.471Z,6.2
2017-03-19T08:55:57.513Z,6.21
2017-03-19T08:56:57.575Z,6.18
2017-03-19T08:57:57.578Z,6.15
2017-03-19T08:58:57.605Z,6.25
2017-03-19T08:59:57.657Z,6.2
2017-03-19T09:00:57.658Z,6.15
2017-03-19T09:01:57.683Z,6.2
2017-03-19T09:02:57.676Z,6.17
2017-03-19T09:03:57.745Z,6.18
2017-03-19T09:04:57.803Z,6.36
2017-03-19T09:05:57.895Z,6.4
2017-03-19T09:06:57.809Z,6.51
2017-03-19T09:07:57.837Z,6.54
2017-03-19T09:08:57.895Z,6.54
2017-03-19T09:09:57.876Z,6.47
2017-03-19T09:10:58.098Z,6.4
2017-03-19T09:11:57.954Z,6.29
2017-03-19T09:12:57.988Z,6.24
2017-03-19T09:13:58.018Z,6.21
2017-03-19T09:14:58.055Z,6.2
2017-03-19T09:15:58.078Z,6.21
2017-03-19T09:32:00.190Z,6.62
2017-03-19T09:32:58.689Z,6.58
2017-03-19T09:33:58.737Z,6.58
2017-03-19T09:34:58.758Z,6.55
2017-03-19T09:35:58.779Z,6.43
2017-03-19T09:36:58.809Z,6.42
2017-03-19T09:37:58.852Z,6.37
2017-03-19T09:38:58.906Z,6.36
2017-03-19T09:39:58.896Z,6.31
2017-03-19T09:40:58.932Z,6.39
2017-03-19T09:41:58.961Z,6.44
2017-03-19T09:42:58.993Z,6.51
2017-03-19T09:43:59.029Z,6.47
2017-03-19T09:44:59.047Z,6.49
2017-03-19T09:45:59.066Z,6.58
2017-03-19T09:46:59.106Z,6.6
2017-03-19T09:47:59.115Z,6.55
2017-03-19T09:48:59.216Z,6.55
2017-03-19T09:49:59.195Z,6.6
2017-03-19T09:50:59.253Z,6.4
2017-03-19T09:51:59.234Z,6.42
2017-03-19T09:52:59.274Z,6.42
2017-03-19T09:53:59.278Z,6.42
2017-03-19T09:54:59.384Z,6.36
2017-03-19T09:55:59.344Z,6.28
2017-03-19T09:56:59.368Z,6.37
2017-03-19T09:57:59.412Z,6.4
2017-03-19T09:58:59.450Z,6.4
2017-03-19T09:59:59.485Z,6.57
2017-03-19T10:00:59.763Z,6.52
2017-03-19T10:01:59.509Z,6.52
2017-03-19T10:02:59.552Z,6.51
2017-03-19T10:03:59.580Z,6.39
2017-03-19T10:04:59.643Z,6.44
2017-03-19T10:05:59.658Z,6.39
2017-03-19T10:06:59.770Z,6.44
2017-03-19T10:07:59.700Z,6.42
2017-03-19T10:08:59.765Z,6.42
2017-03-19T10:09:59.796Z,6.36
2017-03-19T10:10:59.784Z,6.47
2017-03-19T10:11:59.798Z,6.54
2017-03-19T10:12:59.846Z,6.58
2017-03-19T10:13:59.877Z,6.58
2017-03-19T10:14:59.877Z,6.68
2017-03-19T10:15:59.942Z,6.72
2017-03-19T10:16:59.930Z,6.7
2017-03-19T10:17:59.966Z,6.78
2017-03-19T10:18:59.989Z,6.8
2017-03-19T10:20:00.027Z,6.91
2017-03-19T10:21:00.071Z,6.88
2017-03-19T10:22:00.070Z,6.95
2017-03-19T10:23:00.113Z,7.03
2017-03-19T10:24:00.141Z,6.91
2017-03-19T10:25:00.170Z,6.67
2017-03-19T10:26:00.225Z,6.75
2017-03-19T10:27:00.269Z,6.75
2017-03-19T10:28:00.253Z,6.72
2017-03-19T10:29:00.270Z,6.7
2017-03-19T10:30:00.306Z,6.82
2017-03-19T10:31:00.324Z,6.7
2017-03-19T10:32:00.561Z,6.75
2017-03-19T10:33:09.059Z,6.57
2017-03-19T10:34:00.883Z,6.67
2017-03-19T10:35:00.465Z,6.62
2017-03-19T10:36:00.483Z,6.57
2017-03-19T10:37:00.539Z,6.61
2017-03-19T10:38:00.555Z,6.55
2017-03-19T10:39:00.576Z,6.54
2017-03-19T10:40:00.592Z,6.39
2017-03-19T10:41:00.634Z,6.39
2017-03-19T10:42:00.647Z,6.28
2017-03-19T10:43:00.681Z,6.28
2017-03-19T10:44:00.734Z,6.25
2017-03-19T10:45:00.732Z,6.21
2017-03-19T10:46:00.764Z,6.17
2017-03-19T10:47:00.884Z,6.17
2017-03-19T10:48:00.825Z,6.06
2017-03-19T10:49:00.852Z,6
2017-03-19T10:50:00.961Z,5.85
2017-03-19T10:51:00.955Z,5.88
2017-03-19T10:52:00.968Z,5.8
2017-03-19T10:53:00.990Z,5.77
2017-03-19T10:54:01.032Z,5.75
2017-03-19T10:55:01.263Z,5.66
2017-03-19T10:56:01.081Z,5.67
2017-03-19T10:57:01.084Z,5.7
2017-03-19T10:58:01.122Z,5.64
2017-03-19T10:59:01.125Z,5.63
2017-03-19T11:00:01.398Z,5.63
2017-03-19T11:01:01.176Z,5.64
2017-03-19T11:02:01.225Z,5.6
2017-03-19T11:03:01.263Z,5.72
2017-03-19T11:04:01.282Z,5.59
2017-03-19T11:05:01.302Z,5.57
2017-03-19T11:06:01.392Z,5.55
2017-03-19T11:07:01.350Z,5.49
2017-03-19T11:08:01.394Z,5.44
2017-03-19T11:09:01.425Z,5.28
2017-03-19T11:10:01.447Z,5.3
2017-03-19T11:11:01.480Z,5.1
2017-03-19T11:12:01.494Z,5.05
2017-03-19T11:13:01.517Z,4.97
2017-03-19T11:14:01.576Z,4.84
2017-03-19T11:15:01.571Z,4.76
2017-03-19T11:16:01.604Z,4.72
2017-03-19T11:17:01.671Z,4.71
2017-03-19T11:18:01.660Z,4.66
2017-03-19T11:19:01.683Z,4.66
2017-03-19T11:20:01.722Z,4.66
2017-03-19T11:21:01.745Z,4.54
2017-03-19T11:22:01.767Z,4.58
2017-03-19T11:23:01.859Z,4.44
2017-03-19T11:24:02.062Z,4.53
2017-03-19T11:25:01.852Z,4.5
2017-03-19T11:26:01.871Z,4.33
2017-03-19T11:27:01.943Z,4.32
2017-03-19T11:28:01.990Z,4.29
2017-03-19T11:29:01.980Z,4.24
2017-03-19T11:30:02.002Z,4.2
2017-03-19T11:31:02.011Z,4.1
2017-03-19T11:32:02.046Z,4.15
2017-03-19T11:33:02.074Z,4.14
2017-03-19T11:34:02.595Z,4.2
2017-03-19T11:35:02.619Z,4.15
2017-03-19T11:36:02.656Z,4.14
2017-03-19T11:37:02.684Z,4.18
2017-03-19T11:38:02.702Z,4.24
2017-03-19T11:39:02.757Z,4.18
2017-03-19T11:40:02.831Z,4.2
2017-03-19T11:41:02.791Z,4.15
2017-03-19T11:42:02.836Z,4.14
2017-03-19T11:43:02.886Z,4.18
2017-03-19T11:44:02.897Z,4.12
2017-03-19T11:45:02.945Z,4.22
2017-03-19T11:46:02.936Z,4.2
2017-03-19T11:47:02.970Z,4.18
2017-03-19T11:48:02.985Z,4.2
2017-03-19T11:49:03.036Z,4.18
2017-03-19T11:50:03.037Z,4.18
2017-03-19T11:51:03.083Z,4.3
2017-03-19T11:52:03.055Z,4.28
2017-03-19T11:53:03.155Z,4.35
2017-03-19T11:54:03.327Z,4.35
2017-03-19T11:55:03.148Z,4.32
2017-03-19T11:56:03.197Z,4.4
2017-03-19T11:57:03.211Z,4.35
2017-03-19T11:58:03.220Z,4.4
2017-03-19T11:59:03.257Z,4.47
2017-03-19T12:00:03.290Z,4.42
2017-03-19T12:01:03.524Z,4.4
2017-03-19T12:02:03.385Z,4.48
2017-03-19T12:03:03.351Z,4.44
2017-03-19T12:04:03.381Z,4.44
2017-03-19T12:05:03.574Z,4.46
2017-03-19T12:06:03.482Z,4.53
2017-03-19T12:07:03.477Z,4.53
2017-03-19T12:08:03.492Z,4.51
2017-03-19T12:09:03.515Z,4.53
2017-03-19T12:10:03.564Z,4.54
2017-03-19T12:11:03.593Z,4.56
2017-03-19T12:12:03.605Z,4.61
2017-03-19T12:13:03.705Z,4.68
2017-03-19T12:14:03.746Z,4.66
2017-03-19T12:15:03.850Z,4.74
2017-03-19T12:16:03.732Z,4.79
2017-03-19T12:17:03.754Z,4.87
2017-03-19T12:18:03.769Z,4.83
2017-03-19T12:19:03.826Z,4.79
2017-03-19T12:20:04.035Z,4.92
2017-03-19T12:21:03.858Z,4.92
2017-03-19T12:22:03.912Z,4.84
2017-03-19T12:23:04.112Z,4.94
2017-03-19T12:24:03.938Z,4.91
2017-03-19T12:25:03.963Z,4.88
2017-03-19T12:26:03.975Z,4.79
2017-03-19T12:27:03.992Z,4.74
2017-03-19T12:28:04.028Z,4.75
2017-03-19T12:29:04.060Z,4.65
2017-03-19T12:30:04.153Z,4.61
2017-03-19T12:31:04.117Z,4.65
2017-03-19T12:32:04.136Z,4.66
2017-03-19T12:33:04.163Z,4.66
2017-03-19T12:34:04.197Z,4.74
2017-03-19T12:35:04.212Z,4.74
2017-03-19T12:36:04.249Z,4.84
2017-03-19T12:37:04.315Z,4.75
2017-03-19T12:38:04.314Z,4.74
2017-03-19T12:39:04.316Z,4.66
2017-03-19T12:40:04.385Z,4.68
2017-03-19T12:41:04.376Z,4.68
2017-03-19T12:42:04.392Z,4.64
2017-03-19T12:43:04.439Z,4.76
2017-03-19T12:44:04.471Z,4.75
2017-03-19T12:45:04.572Z,4.85
2017-03-19T12:46:04.518Z,4.74
2017-03-19T12:47:04.545Z,4.75
2017-03-19T12:48:04.613Z,4.76
2017-03-19T12:49:04.630Z,4.76
2017-03-19T12:50:04.705Z,4.88
2017-03-19T12:51:04.904Z,4.71
2017-03-19T12:52:04.673Z,4.83
2017-03-19T12:53:04.707Z,4.85
2017-03-19T12:54:04.738Z,4.94
2017-03-19T12:55:04.762Z,4.91
2017-03-19T12:56:04.776Z,4.85
2017-03-19T12:57:04.830Z,4.87
2017-03-19T12:58:05.040Z,4.88
2017-03-19T12:59:04.855Z,4.9
2017-03-19T13:00:04.884Z,4.88
2017-03-19T13:01:05.108Z,4.85
2017-03-19T13:02:04.944Z,4.94
2017-03-19T13:03:04.989Z,4.88
2017-03-19T13:04:04.990Z,4.95
2017-03-19T13:05:05.373Z,5
2017-03-19T13:06:05.036Z,5
2017-03-19T13:07:05.077Z,5.03
2017-03-19T13:08:05.148Z,5.05
2017-03-19T13:09:05.148Z,4.97
2017-03-19T13:10:05.218Z,5.1
2017-03-19T13:11:05.174Z,5.02
2017-03-19T13:12:05.208Z,5.05
2017-03-19T13:13:05.284Z,5
2017-03-19T13:14:05.258Z,5.08
2017-03-19T13:15:05.308Z,5.05
2017-03-19T13:16:05.326Z,5.08
2017-03-19T13:17:05.365Z,5.09
2017-03-19T13:18:05.361Z,5.06
2017-03-19T13:19:05.387Z,5.08
2017-03-19T13:20:05.419Z,5.05
2017-03-19T13:21:05.458Z,5.03
2017-03-19T13:22:05.477Z,5.02
2017-03-19T13:23:05.500Z,5.03
2017-03-19T13:24:05.567Z,5.02
2017-03-19T13:25:05.609Z,5.05
2017-03-19T13:26:05.610Z,5.05
2017-03-19T13:27:05.649Z,5.13
2017-03-19T13:28:05.641Z,5.1
2017-03-19T13:29:05.679Z,5.06
2017-03-19T13:30:05.899Z,4.97
2017-03-19T13:31:05.723Z,5.02
2017-03-19T13:32:05.767Z,5.02
2017-03-19T13:33:05.803Z,4.98
2017-03-19T13:34:05.788Z,5
2017-03-19T13:35:05.878Z,4.85
2017-03-19T13:36:05.863Z,5
2017-03-19T13:37:05.884Z,4.88
2017-03-19T13:38:05.923Z,4.92